sensor_id;sensor_type;location;lat;lon;timestamp;pressure;altitude;pressure_sealevel;temperature;humidity
20015;BME280;61787;42.022;23.078;2023-02-26T00:00:53;95791.94;;;12.94;74.76
20015;BME280;61787;42.022;23.078;2023-02-26T00:01:54;95783.53;;;12.99;74.74
20015;BME280;61787;42.022;23.078;2023-02-26T00:02:58;95778.91;;;12.99;74.42
20015;BME280;61787;42.022;23.078;2023-02-26T00:04:02;95770.84;;;12.99;74.26
20015;BME280;61787;42.022;23.078;2023-02-26T00:05:05;95770.84;;;12.96;74.47
20015;BME280;61787;42.022;23.078;2023-02-26T00:06:07;95774.31;;;13.00;74.14
20015;BME280;61787;42.022;23.078;2023-02-26T00:07:09;95762.75;;;12.92;74.10
20015;BME280;61787;42.022;23.078;2023-02-26T00:08:11;95766.56;;;12.91;73.99
20015;BME280;61787;42.022;23.078;2023-02-26T00:09:13;95770.34;;;12.83;73.89
20015;BME280;61787;42.022;23.078;2023-02-26T00:10:14;95756.53;;;12.85;73.63
20015;BME280;61787;42.022;23.078;2023-02-26T00:11:17;95761.53;;;12.86;73.17
20015;BME280;61787;42.022;23.078;2023-02-26T00:12:19;95748.44;;;12.81;72.82
20015;BME280;61787;42.022;23.078;2023-02-26T00:13:21;95750.38;;;12.84;72.16
20015;BME280;61787;42.022;23.078;2023-02-26T00:14:22;95748.47;;;12.88;72.56
20015;BME280;61787;42.022;23.078;2023-02-26T00:15:25;95745.41;;;12.90;71.81
20015;BME280;61787;42.022;23.078;2023-02-26T00:16:31;95745.81;;;12.92;71.54
20015;BME280;61787;42.022;23.078;2023-02-26T00:18:49;95740.03;;;12.93;71.88
20015;BME280;61787;42.022;23.078;2023-02-26T00:19:51;95738.13;;;12.90;72.01
20015;BME280;61787;42.022;23.078;2023-02-26T00:20:53;95729.63;;;12.88;71.82
20015;BME280;61787;42.022;23.078;2023-02-26T00:21:55;95732.31;;;12.88;72.04
20015;BME280;61787;42.022;23.078;2023-02-26T00:22:57;95733.50;;;12.87;72.23
20015;BME280;61787;42.022;23.078;2023-02-26T00:23:59;95737.34;;;12.90;72.18
20015;BME280;61787;42.022;23.078;2023-02-26T00:25:02;95735.06;;;12.92;72.35
20015;BME280;61787;42.022;23.078;2023-02-26T00:26:04;95739.66;;;12.91;72.46
20015;BME280;61787;42.022;23.078;2023-02-26T00:27:05;95741.94;;;12.89;72.24
20015;BME280;61787;42.022;23.078;2023-02-26T00:28:08;95737.31;;;12.86;72.80
20015;BME280;61787;42.022;23.078;2023-02-26T00:29:10;95741.16;;;12.85;72.34
20015;BME280;61787;42.022;23.078;2023-02-26T00:30:12;95734.22;;;12.84;72.37
20015;BME280;61787;42.022;23.078;2023-02-26T00:31:14;95730.03;;;12.87;72.24
20015;BME280;61787;42.022;23.078;2023-02-26T00:32:17;95746.19;;;12.90;72.16
20015;BME280;61787;42.022;23.078;2023-02-26T00:33:19;95737.72;;;12.88;72.20
20015;BME280;61787;42.022;23.078;2023-02-26T00:34:21;95731.94;;;12.86;72.55
20015;BME280;61787;42.022;23.078;2023-02-26T00:35:23;95737.72;;;12.88;72.16
20015;BME280;61787;42.022;23.078;2023-02-26T00:37:53;95732.31;;;12.88;71.80
20015;BME280;61787;42.022;23.078;2023-02-26T00:41:22;95729.63;;;12.88;72.01
20015;BME280;61787;42.022;23.078;2023-02-26T00:42:24;95730.03;;;12.87;71.68
20015;BME280;61787;42.022;23.078;2023-02-26T00:43:26;95734.22;;;12.84;72.08
20015;BME280;61787;42.022;23.078;2023-02-26T00:44:28;95728.47;;;12.86;72.56
20015;BME280;61787;42.022;23.078;2023-02-26T00:45:30;95726.50;;;12.82;72.03
20015;BME280;61787;42.022;23.078;2023-02-26T00:46:52;95726.91;;;12.81;72.26
20015;BME280;61787;42.022;23.078;2023-02-26T00:48:05;95719.22;;;12.83;72.03
20015;BME280;61787;42.022;23.078;2023-02-26T00:50:23;95710.34;;;12.79;71.73
20015;BME280;61787;42.022;23.078;2023-02-26T00:52:43;95730.38;;;12.81;71.29
20015;BME280;61787;42.022;23.078;2023-02-26T00:55:09;95735.78;;;12.85;70.40
20015;BME280;61787;42.022;23.078;2023-02-26T00:56:12;95728.13;;;12.87;70.39
20015;BME280;61787;42.022;23.078;2023-02-26T00:57:14;95725.81;;;12.89;70.58
20015;BME280;61787;42.022;23.078;2023-02-26T00:58:16;95727.72;;;12.89;70.78
20015;BME280;61787;42.022;23.078;2023-02-26T00:59:18;95722.72;;;12.87;70.08
20015;BME280;61787;42.022;23.078;2023-02-26T01:00:20;95720.78;;;12.88;70.61
20015;BME280;61787;42.022;23.078;2023-02-26T01:01:22;95737.31;;;12.86;70.07
20015;BME280;61787;42.022;23.078;2023-02-26T01:02:24;95730.81;;;12.87;70.37
20015;BME280;61787;42.022;23.078;2023-02-26T01:03:26;95728.13;;;12.87;70.56
20015;BME280;61787;42.022;23.078;2023-02-26T01:04:28;95718.88;;;12.88;70.45
20015;BME280;61787;42.022;23.078;2023-02-26T01:05:30;95725.81;;;12.89;70.21
20015;BME280;61787;42.022;23.078;2023-02-26T01:06:33;95729.63;;;12.88;70.11
20015;BME280;61787;42.022;23.078;2023-02-26T01:07:43;95725.81;;;12.93;69.04
20015;BME280;61787;42.022;23.078;2023-02-26T01:09:06;95722.75;;;12.94;69.14
20015;BME280;61787;42.022;23.078;2023-02-26T01:10:12;95724.66;;;12.90;69.43
20015;BME280;61787;42.022;23.078;2023-02-26T01:11:15;95718.16;;;12.91;69.42
20015;BME280;61787;42.022;23.078;2023-02-26T01:12:16;95709.28;;;12.91;69.32
20015;BME280;61787;42.022;23.078;2023-02-26T01:13:18;95705.84;;;12.90;69.00
20015;BME280;61787;42.022;23.078;2023-02-26T01:14:21;95703.56;;;12.92;68.91
20015;BME280;61787;42.022;23.078;2023-02-26T01:15:24;95699.69;;;12.93;68.82
20015;BME280;61787;42.022;23.078;2023-02-26T01:16:27;95704.69;;;12.95;68.43
20015;BME280;61787;42.022;23.078;2023-02-26T01:17:35;95700.50;;;12.97;68.56
20015;BME280;61787;42.022;23.078;2023-02-26T01:18:43;95703.19;;;12.97;68.54
20015;BME280;61787;42.022;23.078;2023-02-26T01:19:58;95697.41;;;12.95;68.36
20015;BME280;61787;42.022;23.078;2023-02-26T01:21:09;95698.19;;;12.99;67.96
20015;BME280;61787;42.022;23.078;2023-02-26T01:22:19;95706.69;;;13.01;67.82
20015;BME280;61787;42.022;23.078;2023-02-26T01:23:25;95686.69;;;13.02;67.99
20015;BME280;61787;42.022;23.078;2023-02-26T01:24:29;95697.47;;;13.02;67.69
20015;BME280;61787;42.022;23.078;2023-02-26T01:26:00;95689.78;;;13.04;68.01
20015;BME280;61787;42.022;23.078;2023-02-26T01:27:00;95696.28;;;13.03;68.09
20015;BME280;61787;42.022;23.078;2023-02-26T01:28:02;95684.38;;;12.97;68.42
20015;BME280;61787;42.022;23.078;2023-02-26T01:29:03;95683.53;;;12.93;68.89
20015;BME280;61787;42.022;23.078;2023-02-26T01:30:06;95687.41;;;12.92;69.31
20015;BME280;61787;42.022;23.078;2023-02-26T01:31:22;95689.69;;;12.90;69.51
20015;BME280;61787;42.022;23.078;2023-02-26T01:33:52;95696.97;;;12.86;69.88
20015;BME280;61787;42.022;23.078;2023-02-26T01:34:59;95692.31;;;12.83;70.30
20015;BME280;61787;42.022;23.078;2023-02-26T01:36:08;95692.66;;;12.78;71.13
20015;BME280;61787;42.022;23.078;2023-02-26T01:38:41;95681.88;;;12.71;71.23
20015;BME280;61787;42.022;23.078;2023-02-26T01:39:59;95675.34;;;12.72;70.63
20015;BME280;61787;42.022;23.078;2023-02-26T01:42:30;95667.31;;;12.79;69.77
20015;BME280;61787;42.022;23.078;2023-02-26T01:43:48;95666.94;;;12.80;69.79
20015;BME280;61787;42.022;23.078;2023-02-26T01:45:04;95660.38;;;12.78;69.73
20015;BME280;61787;42.022;23.078;2023-02-26T01:48:51;95658.19;;;12.91;68.93
20015;BME280;61787;42.022;23.078;2023-02-26T01:49:54;95649.69;;;12.85;69.20
20015;BME280;61787;42.022;23.078;2023-02-26T01:50:56;95661.22;;;12.82;69.36
20015;BME280;61787;42.022;23.078;2023-02-26T01:51:59;95650.81;;;12.84;69.16
20015;BME280;61787;42.022;23.078;2023-02-26T01:53:22;95661.22;;;12.86;68.67
20015;BME280;61787;42.022;23.078;2023-02-26T01:54:30;95646.63;;;12.90;68.49
20015;BME280;61787;42.022;23.078;2023-02-26T01:55:32;95648.97;;;12.92;68.33
20015;BME280;61787;42.022;23.078;2023-02-26T01:56:34;95652.03;;;12.90;68.42
20015;BME280;61787;42.022;23.078;2023-02-26T01:57:36;95663.56;;;12.91;68.43
20015;BME280;61787;42.022;23.078;2023-02-26T01:58:38;95662.78;;;12.90;68.49
20015;BME280;61787;42.022;23.078;2023-02-26T01:59:43;95664.34;;;12.91;68.25
20015;BME280;61787;42.022;23.078;2023-02-26T02:00:45;95662.41;;;12.92;68.14
20015;BME280;61787;42.022;23.078;2023-02-26T02:01:47;95647.06;;;12.92;68.07
20015;BME280;61787;42.022;23.078;2023-02-26T02:02:49;95656.63;;;12.93;67.60
20015;BME280;61787;42.022;23.078;2023-02-26T02:03:51;95651.25;;;12.93;68.38
20015;BME280;61787;42.022;23.078;2023-02-26T02:04:53;95648.97;;;12.92;68.69
20015;BME280;61787;42.022;23.078;2023-02-26T02:06:16;95653.16;;;12.89;69.03
20015;BME280;61787;42.022;23.078;2023-02-26T02:07:18;95655.84;;;12.89;69.40
20015;BME280;61787;42.022;23.078;2023-02-26T02:08:20;95651.63;;;12.88;70.09
20015;BME280;61787;42.022;23.078;2023-02-26T02:09:22;95655.47;;;12.87;70.15
20015;BME280;61787;42.022;23.078;2023-02-26T02:10:24;95654.28;;;12.85;70.41
20015;BME280;61787;42.022;23.078;2023-02-26T02:11:26;95664.28;;;12.84;70.51
20015;BME280;61787;42.022;23.078;2023-02-26T02:12:43;95664.25;;;12.80;70.88
20015;BME280;61787;42.022;23.078;2023-02-26T02:24:14;95662.47;;;12.48;75.99
20015;BME280;61787;42.022;23.078;2023-02-26T02:31:23;95659.34;;;12.38;76.80
20015;BME280;61787;42.022;23.078;2023-02-26T02:32:27;95676.28;;;12.43;76.34
20015;BME280;61787;42.022;23.078;2023-02-26T02:33:35;95677.84;;;12.47;76.15
20015;BME280;61787;42.022;23.078;2023-02-26T02:36:08;95674.03;;;12.52;75.58
20015;BME280;61787;42.022;23.078;2023-02-26T02:37:22;95679.47;;;12.55;75.83
20015;BME280;61787;42.022;23.078;2023-02-26T02:38:33;95677.91;;;12.54;75.83
20015;BME280;61787;42.022;23.078;2023-02-26T02:39:43;95680.56;;;12.51;75.84
20015;BME280;61787;42.022;23.078;2023-02-26T02:40:51;95669.41;;;12.49;76.55
20015;BME280;61787;42.022;23.078;2023-02-26T02:43:08;95681.66;;;12.43;76.84
20015;BME280;61787;42.022;23.078;2023-02-26T02:44:15;95674.34;;;12.39;77.51
20015;BME280;61787;42.022;23.078;2023-02-26T02:45:44;95661.63;;;12.36;77.87
20015;BME280;61787;42.022;23.078;2023-02-26T02:46:49;95666.63;;;12.34;77.55
20015;BME280;61787;42.022;23.078;2023-02-26T02:47:59;95670.09;;;12.38;77.18
20015;BME280;61787;42.022;23.078;2023-02-26T02:49:15;95665.88;;;12.37;77.07
20015;BME280;61787;42.022;23.078;2023-02-26T02:50:25;95675.47;;;12.38;77.37
20015;BME280;61787;42.022;23.078;2023-02-26T02:51:35;95671.63;;;12.36;77.79
20015;BME280;61787;42.022;23.078;2023-02-26T02:52:43;95664.69;;;12.35;77.45
20015;BME280;61787;42.022;23.078;2023-02-26T02:54:00;95672.00;;;12.34;77.61
20015;BME280;61787;42.022;23.078;2023-02-26T02:55:15;95670.84;;;12.35;78.00
20015;BME280;61787;42.022;23.078;2023-02-26T02:56:23;95668.56;;;12.37;77.30
20015;BME280;61787;42.022;23.078;2023-02-26T02:57:34;95675.47;;;12.38;77.33
20015;BME280;61787;42.022;23.078;2023-02-26T02:58:48;95679.69;;;12.36;77.48
20015;BME280;61787;42.022;23.078;2023-02-26T02:59:55;95673.13;;;12.33;77.53
20015;BME280;61787;42.022;23.078;2023-02-26T03:01:02;95670.03;;;12.31;77.80
20015;BME280;61787;42.022;23.078;2023-02-26T03:02:20;95669.66;;;12.29;77.69
20015;BME280;61787;42.022;23.078;2023-02-26T03:04:28;95656.94;;;12.26;77.84
20015;BME280;61787;42.022;23.078;2023-02-26T03:05:30;95663.84;;;12.27;78.01
20015;BME280;61787;42.022;23.078;2023-02-26T03:06:32;95660.03;;;12.28;78.37
20015;BME280;61787;42.022;23.078;2023-02-26T03:07:39;95663.47;;;12.25;78.49
20015;BME280;61787;42.022;23.078;2023-02-26T03:08:43;95657.69;;;12.23;78.64
20015;BME280;61787;42.022;23.078;2023-02-26T03:09:47;95652.31;;;12.23;78.49
20015;BME280;61787;42.022;23.078;2023-02-26T03:10:49;95656.94;;;12.26;78.69
20015;BME280;61787;42.022;23.078;2023-02-26T03:11:51;95660.00;;;12.25;78.99
20015;BME280;61787;42.022;23.078;2023-02-26T03:12:52;95647.72;;;12.24;79.01
20015;BME280;61787;42.022;23.078;2023-02-26T03:13:54;95653.88;;;12.24;78.68
20015;BME280;61787;42.022;23.078;2023-02-26T03:14:56;95644.66;;;12.25;78.80
20015;BME280;61787;42.022;23.078;2023-02-26T03:18:40;95640.84;;;12.30;78.21
20015;BME280;61787;42.022;23.078;2023-02-26T03:20:02;95653.91;;;12.31;78.37
20015;BME280;61787;42.022;23.078;2023-02-26T03:22:45;95638.88;;;12.23;79.62
20015;BME280;61787;42.022;23.078;2023-02-26T03:25:15;95640.75;;;12.19;79.71
20015;BME280;61787;42.022;23.078;2023-02-26T03:26:30;95626.94;;;12.21;79.71
20015;BME280;61787;42.022;23.078;2023-02-26T03:28:00;95655.00;;;12.23;79.29
20015;BME280;61787;42.022;23.078;2023-02-26T03:32:44;95631.16;;;12.18;79.70
20015;BME280;61787;42.022;23.078;2023-02-26T03:33:57;95632.28;;;12.17;80.10
20015;BME280;61787;42.022;23.078;2023-02-26T03:35:08;95629.22;;;12.15;80.08
20015;BME280;61787;42.022;23.078;2023-02-26T03:37:25;95644.94;;;12.13;80.85
20015;BME280;61787;42.022;23.078;2023-02-26T03:38:48;95631.50;;;12.13;80.61
20015;BME280;61787;42.022;23.078;2023-02-26T03:39:54;95649.16;;;12.14;80.75
20015;BME280;61787;42.022;23.078;2023-02-26T03:41:13;95636.88;;;12.13;80.42
20015;BME280;61787;42.022;23.078;2023-02-26T03:42:21;95622.66;;;12.13;80.63
20015;BME280;61787;42.022;23.078;2023-02-26T03:43:53;95632.25;;;12.10;80.91
20015;BME280;61787;42.022;23.078;2023-02-26T03:45:04;95630.69;;;12.09;80.45
20015;BME280;61787;42.022;23.078;2023-02-26T03:46:10;95628.41;;;12.11;80.83
20015;BME280;61787;42.022;23.078;2023-02-26T03:47:15;95641.84;;;12.11;79.97
20015;BME280;61787;42.022;23.078;2023-02-26T03:48:21;95638.00;;;12.12;80.26
20015;BME280;61787;42.022;23.078;2023-02-26T03:49:47;95633.03;;;12.14;80.02
20015;BME280;61787;42.022;23.078;2023-02-26T03:50:52;95623.44;;;12.13;79.96
20015;BME280;61787;42.022;23.078;2023-02-26T03:51:58;95624.56;;;12.12;80.17
20015;BME280;61787;42.022;23.078;2023-02-26T03:53:02;95626.13;;;12.13;79.87
20015;BME280;61787;42.022;23.078;2023-02-26T03:54:14;95635.31;;;12.12;79.94
20015;BME280;61787;42.022;23.078;2023-02-26T03:55:21;95631.47;;;12.10;80.21
20015;BME280;61787;42.022;23.078;2023-02-26T03:56:33;95626.06;;;12.06;80.79
20015;BME280;61787;42.022;23.078;2023-02-26T03:57:37;95633.31;;;12.02;80.49
20015;BME280;61787;42.022;23.078;2023-02-26T03:58:39;95610.69;;;12.03;80.75
20015;BME280;61787;42.022;23.078;2023-02-26T03:59:42;95630.97;;;11.97;81.21
20015;BME280;61787;42.022;23.078;2023-02-26T04:00:46;95627.91;;;11.95;81.93
20015;BME280;61787;42.022;23.078;2023-02-26T04:03:00;95621.78;;;11.98;80.77
20015;BME280;61787;42.022;23.078;2023-02-26T04:04:08;95624.03;;;11.96;80.62
20015;BME280;61787;42.022;23.078;2023-02-26T04:05:16;95618.66;;;11.96;80.78
20015;BME280;61787;42.022;23.078;2023-02-26T04:06:20;95627.56;;;12.00;79.87
20015;BME280;61787;42.022;23.078;2023-02-26T04:07:23;95629.84;;;12.02;79.70
20015;BME280;61787;42.022;23.078;2023-02-26T04:08:27;95640.59;;;12.02;79.70
20015;BME280;61787;42.022;23.078;2023-02-26T04:09:29;95636.00;;;12.02;79.85
20015;BME280;61787;42.022;23.078;2023-02-26T04:10:39;95626.38;;;12.01;79.37
20015;BME280;61787;42.022;23.078;2023-02-26T04:11:42;95636.00;;;12.02;79.09
20015;BME280;61787;42.022;23.078;2023-02-26T04:12:44;95636.78;;;12.03;79.57
20015;BME280;61787;42.022;23.078;2023-02-26T04:13:46;95630.63;;;12.02;79.46
20015;BME280;61787;42.022;23.078;2023-02-26T04:14:48;95623.69;;;12.01;78.85
20015;BME280;61787;42.022;23.078;2023-02-26T04:15:50;95637.91;;;12.02;78.79
20015;BME280;61787;42.022;23.078;2023-02-26T04:16:52;95619.88;;;12.02;79.34
20015;BME280;61787;42.022;23.078;2023-02-26T04:17:54;95631.75;;;12.01;78.68
20015;BME280;61787;42.022;23.078;2023-02-26T04:18:55;95632.16;;;12.00;78.94
20015;BME280;61787;42.022;23.078;2023-02-26T04:19:57;95633.66;;;12.01;78.79
20015;BME280;61787;42.022;23.078;2023-02-26T04:20:59;95622.19;;;12.00;79.19
20015;BME280;61787;42.022;23.078;2023-02-26T04:22:00;95633.66;;;12.01;78.79
20015;BME280;61787;42.022;23.078;2023-02-26T04:23:02;95632.53;;;12.02;78.87
20015;BME280;61787;42.022;23.078;2023-02-26T04:24:04;95632.94;;;12.00;79.23
20015;BME280;61787;42.022;23.078;2023-02-26T04:25:06;95623.69;;;12.01;78.79
20015;BME280;61787;42.022;23.078;2023-02-26T04:26:07;95623.69;;;12.01;78.56
20015;BME280;61787;42.022;23.078;2023-02-26T04:27:09;95632.09;;;11.96;78.46
20015;BME280;61787;42.022;23.078;2023-02-26T04:28:11;95628.69;;;11.99;78.70
20015;BME280;61787;42.022;23.078;2023-02-26T04:29:13;95622.19;;;12.00;78.69
20015;BME280;61787;42.022;23.078;2023-02-26T04:30:15;95620.66;;;12.03;77.89
20015;BME280;61787;42.022;23.078;2023-02-26T04:31:17;95626.81;;;12.03;77.97
20015;BME280;61787;42.022;23.078;2023-02-26T04:32:18;95622.22;;;12.04;77.74
20015;BME280;61787;42.022;23.078;2023-02-26T04:33:20;95627.59;;;12.07;77.24
20015;BME280;61787;42.022;23.078;2023-02-26T04:34:23;95616.84;;;12.07;77.06
20015;BME280;61787;42.022;23.078;2023-02-26T04:35:25;95614.56;;;12.09;77.26
20015;BME280;61787;42.022;23.078;2023-02-26T04:36:26;95612.66;;;12.10;76.76
20015;BME280;61787;42.022;23.078;2023-02-26T04:37:28;95617.66;;;12.11;76.27
20015;BME280;61787;42.022;23.078;2023-02-26T04:38:30;95612.28;;;12.11;75.98
20015;BME280;61787;42.022;23.078;2023-02-26T04:39:31;95615.38;;;12.13;76.80
20015;BME280;61787;42.022;23.078;2023-02-26T04:40:33;95616.91;;;12.14;75.83
20015;BME280;61787;42.022;23.078;2023-02-26T04:41:35;95614.63;;;12.16;76.42
20015;BME280;61787;42.022;23.078;2023-02-26T04:42:37;95606.56;;;12.16;75.64
20015;BME280;61787;42.022;23.078;2023-02-26T04:43:38;95609.63;;;12.15;76.58
20015;BME280;61787;42.022;23.078;2023-02-26T04:44:40;95600.41;;;12.16;76.46
20015;BME280;61787;42.022;23.078;2023-02-26T04:45:47;95611.53;;;12.14;76.29
20015;BME280;61787;42.022;23.078;2023-02-26T04:46:49;95607.72;;;12.15;76.66
20015;BME280;61787;42.022;23.078;2023-02-26T04:47:50;95616.91;;;12.14;76.51
20015;BME280;61787;42.022;23.078;2023-02-26T04:48:52;95611.13;;;12.12;76.62
20015;BME280;61787;42.022;23.078;2023-02-26T04:49:54;95609.22;;;12.09;77.21
20015;BME280;61787;42.022;23.078;2023-02-26T04:50:55;95611.47;;;12.07;77.45
20015;BME280;61787;42.022;23.078;2023-02-26T04:51:57;95606.88;;;12.08;77.57
20015;BME280;61787;42.022;23.078;2023-02-26T04:52:59;95623.78;;;12.08;77.09
20015;BME280;61787;42.022;23.078;2023-02-26T04:54:01;95622.22;;;12.07;77.01
20015;BME280;61787;42.022;23.078;2023-02-26T04:55:03;95624.53;;;12.05;77.63
20015;BME280;61787;42.022;23.078;2023-02-26T04:56:04;95622.97;;;12.04;77.42
20015;BME280;61787;42.022;23.078;2023-02-26T04:57:07;95622.97;;;12.04;77.80
20015;BME280;61787;42.022;23.078;2023-02-26T04:58:10;95627.94;;;12.02;77.39
20015;BME280;61787;42.022;23.078;2023-02-26T04:59:11;95629.84;;;12.02;77.55
20015;BME280;61787;42.022;23.078;2023-02-26T05:00:14;95630.63;;;12.02;77.93
20015;BME280;61787;42.022;23.078;2023-02-26T05:01:16;95637.53;;;12.00;78.16
20015;BME280;61787;42.022;23.078;2023-02-26T05:02:17;95632.94;;;12.00;77.82
20015;BME280;61787;42.022;23.078;2023-02-26T05:03:20;95625.22;;;11.95;77.70
20015;BME280;61787;42.022;23.078;2023-02-26T05:04:21;95621.75;;;11.94;78.31
20015;BME280;61787;42.022;23.078;2023-02-26T05:05:23;95640.56;;;11.94;78.08
20015;BME280;61787;42.022;23.078;2023-02-26T05:06:25;95633.66;;;11.97;77.93
20015;BME280;61787;42.022;23.078;2023-02-26T05:07:27;95628.69;;;11.99;77.25
20015;BME280;61787;42.022;23.078;2023-02-26T05:08:28;95634.06;;;11.99;77.86
20015;BME280;61787;42.022;23.078;2023-02-26T05:09:30;95629.41;;;11.96;78.37
20015;BME280;61787;42.022;23.078;2023-02-26T05:10:32;95609.09;;;11.95;78.52
20015;BME280;61787;42.022;23.078;2023-02-26T05:11:33;95635.13;;;11.91;79.27
20015;BME280;61787;42.022;23.078;2023-02-26T05:12:35;95619.00;;;11.91;78.63
20015;BME280;61787;42.022;23.078;2023-02-26T05:13:37;95622.09;;;11.93;77.66
20015;BME280;61787;42.022;23.078;2023-02-26T05:14:39;95625.22;;;11.95;78.00
20015;BME280;61787;42.022;23.078;2023-02-26T05:15:40;95618.28;;;11.94;78.46
20015;BME280;61787;42.022;23.078;2023-02-26T05:16:42;95601.03;;;11.95;77.05
20015;BME280;61787;42.022;23.078;2023-02-26T05:17:43;95611.38;;;11.96;77.24
20015;BME280;61787;42.022;23.078;2023-02-26T05:18:45;95613.72;;;11.98;76.69
20015;BME280;61787;42.022;23.078;2023-02-26T05:19:47;95620.63;;;11.99;76.46
20015;BME280;61787;42.022;23.078;2023-02-26T05:20:55;95625.25;;;12.02;75.97
20015;BME280;61787;42.022;23.078;2023-02-26T05:21:57;95619.50;;;12.00;76.38
20015;BME280;61787;42.022;23.078;2023-02-26T05:22:58;95624.53;;;12.05;75.52
20015;BME280;61787;42.022;23.078;2023-02-26T05:24:00;95615.31;;;12.06;75.57
20015;BME280;61787;42.022;23.078;2023-02-26T05:25:03;95616.06;;;12.07;75.83
20015;BME280;61787;42.022;23.078;2023-02-26T05:26:05;95616.50;;;12.09;75.52
20015;BME280;61787;42.022;23.078;2023-02-26T05:27:06;95619.53;;;12.07;75.52
20015;BME280;61787;42.022;23.078;2023-02-26T05:28:08;95616.06;;;12.07;75.56
20015;BME280;61787;42.022;23.078;2023-02-26T05:29:10;95620.69;;;12.06;76.17
20015;BME280;61787;42.022;23.078;2023-02-26T05:30:13;95614.53;;;12.06;76.11
20015;BME280;61787;42.022;23.078;2023-02-26T05:31:15;95604.19;;;12.04;75.91
20015;BME280;61787;42.022;23.078;2023-02-26T05:32:17;95609.22;;;12.09;75.46
20015;BME280;61787;42.022;23.078;2023-02-26T05:33:18;95613.03;;;12.08;75.29
20015;BME280;61787;42.022;23.078;2023-02-26T05:34:20;95603.84;;;12.09;75.00
20015;BME280;61787;42.022;23.078;2023-02-26T05:35:22;95600.38;;;12.09;75.32
20015;BME280;61787;42.022;23.078;2023-02-26T05:36:23;95613.03;;;12.08;75.12
20015;BME280;61787;42.022;23.078;2023-02-26T05:37:25;95606.13;;;12.11;74.69
20015;BME280;61787;42.022;23.078;2023-02-26T05:38:27;95602.34;;;12.15;73.95
20015;BME280;61787;42.022;23.078;2023-02-26T05:39:29;95605.06;;;12.19;73.89
20015;BME280;61787;42.022;23.078;2023-02-26T05:40:30;95611.59;;;12.21;73.36
20015;BME280;61787;42.022;23.078;2023-02-26T05:41:32;95609.31;;;12.23;72.92
20015;BME280;61787;42.022;23.078;2023-02-26T05:42:33;95602.03;;;12.24;73.60
20015;BME280;61787;42.022;23.078;2023-02-26T05:43:35;95608.16;;;12.24;73.23
20015;BME280;61787;42.022;23.078;2023-02-26T05:44:37;95609.31;;;12.23;73.34
20015;BME280;61787;42.022;23.078;2023-02-26T05:45:38;95608.56;;;12.26;72.37
20015;BME280;61787;42.022;23.078;2023-02-26T05:46:40;95593.25;;;12.30;72.17
20015;BME280;61787;42.022;23.078;2023-02-26T05:47:41;95596.31;;;12.29;72.40
20015;BME280;61787;42.022;23.078;2023-02-26T05:48:43;95602.44;;;12.29;71.96
20015;BME280;61787;42.022;23.078;2023-02-26T05:49:46;95602.47;;;12.33;71.65
20015;BME280;61787;42.022;23.078;2023-02-26T05:50:48;95597.88;;;12.33;71.84
20015;BME280;61787;42.022;23.078;2023-02-26T05:51:50;95607.88;;;12.36;71.54
20015;BME280;61787;42.022;23.078;2023-02-26T05:52:52;95617.88;;;12.39;70.88
20015;BME280;61787;42.022;23.078;2023-02-26T05:53:54;95613.31;;;12.44;70.54
20015;BME280;61787;42.022;23.078;2023-02-26T05:54:55;95612.16;;;12.45;70.13
20015;BME280;61787;42.022;23.078;2023-02-26T05:55:57;95621.00;;;12.49;69.39
20015;BME280;61787;42.022;23.078;2023-02-26T05:56:59;95610.66;;;12.51;69.40
20015;BME280;61787;42.022;23.078;2023-02-26T05:58:01;95612.53;;;12.47;69.59
20015;BME280;61787;42.022;23.078;2023-02-26T05:59:02;95617.16;;;12.46;70.27
20015;BME280;61787;42.022;23.078;2023-02-26T06:00:05;95611.38;;;12.44;70.13
20015;BME280;61787;42.022;23.078;2023-02-26T06:01:07;95617.53;;;12.45;70.00
20015;BME280;61787;42.022;23.078;2023-02-26T06:02:09;95609.47;;;12.45;69.37
20015;BME280;61787;42.022;23.078;2023-02-26T06:03:11;95617.53;;;12.45;69.93
20015;BME280;61787;42.022;23.078;2023-02-26T06:04:12;95610.25;;;12.49;69.58
20015;BME280;61787;42.022;23.078;2023-02-26T06:05:14;95619.47;;;12.48;69.36
20015;BME280;61787;42.022;23.078;2023-02-26T06:06:16;95616.81;;;12.51;69.28
20015;BME280;61787;42.022;23.078;2023-02-26T06:07:18;95603.75;;;12.53;69.19
20015;BME280;61787;42.022;23.078;2023-02-26T06:08:20;95614.16;;;12.55;69.26
20015;BME280;61787;42.022;23.078;2023-02-26T06:09:22;95621.81;;;12.53;69.47
20015;BME280;61787;42.022;23.078;2023-02-26T06:10:23;95604.16;;;12.55;69.56
20015;BME280;61787;42.022;23.078;2023-02-26T06:11:25;95599.94;;;12.54;69.33
20015;BME280;61787;42.022;23.078;2023-02-26T06:12:26;95610.31;;;12.56;69.22
20015;BME280;61787;42.022;23.078;2023-02-26T06:13:28;95607.22;;;12.54;69.59
20015;BME280;61787;42.022;23.078;2023-02-26T06:14:29;95591.88;;;12.54;68.81
20015;BME280;61787;42.022;23.078;2023-02-26T06:15:31;95590.31;;;12.57;68.98
20015;BME280;61787;42.022;23.078;2023-02-26T06:16:33;95605.72;;;12.60;68.71
20015;BME280;61787;42.022;23.078;2023-02-26T06:17:37;95599.22;;;12.61;67.77
20015;BME280;61787;42.022;23.078;2023-02-26T06:18:41;95581.19;;;12.65;67.40
20015;BME280;61787;42.022;23.078;2023-02-26T06:19:42;95601.19;;;12.71;66.40
20015;BME280;61787;42.022;23.078;2023-02-26T06:20:45;95588.94;;;12.77;65.85
20015;BME280;61787;42.022;23.078;2023-02-26T06:21:46;95592.00;;;12.79;65.89
20015;BME280;61787;42.022;23.078;2023-02-26T06:22:48;95580.50;;;12.82;65.87
20015;BME280;61787;42.022;23.078;2023-02-26T06:23:50;95590.50;;;12.85;65.37
20015;BME280;61787;42.022;23.078;2023-02-26T06:24:51;95580.53;;;12.89;64.14
20015;BME280;61787;42.022;23.078;2023-02-26T06:25:55;95567.16;;;13.07;63.31